Time;durP1;ratioP1;P1;durP2;ratioP2;P2;SDS_P1;SDS_P2;PMS_P1;PMS_P2;Temp;Humidity;BMP_temperature;BMP_pressure;BME280_temperature;BME280_humidity;BME280_pressure;Samples;Min_cycle;Max_cycle;Signal;HPM_P1;HPM_P2
2021/09/02 00:00:51;;;;;;;1.77;1.30;;;23.40;57.50;;;;;;6242577;28;20104;-72
2021/09/02 00:03:51;;;;;;;1.70;1.40;;;23.40;57.50;;;;;;6241953;28;20445;-71
2021/09/02 00:06:52;;;;;;;2.17;1.63;;;23.40;57.40;;;;;;6242291;28;20022;-71
2021/09/02 00:09:52;;;;;;;3.40;1.65;;;23.50;57.50;;;;;;6240560;28;20057;-71
2021/09/02 00:12:53;;;;;;;1.45;1.20;;;23.40;57.50;;;;;;6226957;28;20022;-72
2021/09/02 00:15:53;;;;;;;2.35;1.33;;;23.40;57.50;;;;;;6216040;28;20030;-72
2021/09/02 00:18:54;;;;;;;1.77;1.42;;;23.50;57.60;;;;;;6240010;28;20395;-72
2021/09/02 00:21:54;;;;;;;1.35;1.20;;;23.40;57.60;;;;;;6242256;28;20113;-72
2021/09/02 00:24:55;;;;;;;1.75;1.50;;;23.40;57.50;;;;;;6240797;28;20132;-72
2021/09/02 00:27:55;;;;;;;1.77;1.23;;;23.40;57.50;;;;;;6241712;28;20025;-72
2021/09/02 00:30:56;;;;;;;1.45;1.33;;;23.40;57.50;;;;;;6240541;28;20104;-72
2021/09/02 00:33:56;;;;;;;1.95;1.55;;;23.50;57.60;;;;;;6240538;28;20057;-72
2021/09/02 00:36:57;;;;;;;2.10;1.30;;;23.40;57.60;;;;;;6242324;28;20116;-73
2021/09/02 00:39:58;;;;;;;2.03;1.38;;;23.40;57.50;;;;;;6246367;28;20056;-72
2021/09/02 00:42:59;;;;;;;1.60;1.13;;;23.40;57.60;;;;;;6236681;28;20025;-71
2021/09/02 00:45:59;;;;;;;1.63;1.50;;;23.50;57.60;;;;;;6221964;28;20065;-72
2021/09/02 00:49:00;;;;;;;1.60;1.30;;;23.50;57.60;;;;;;6240378;28;20494;-72
2021/09/02 00:52:14;;;;;;;2.05;1.55;;;23.40;57.50;;;;;;6244692;28;20125;-71
2021/09/02 00:55:15;;;;;;;1.45;1.35;;;23.40;57.50;;;;;;6244259;28;20021;-71
2021/09/02 00:58:19;;;;;;;1.33;1.23;;;23.40;57.50;;;;;;6244197;28;20052;-72
2021/09/02 01:01:21;;;;;;;1.30;1.20;;;23.40;57.50;;;;;;6244206;28;20372;-72
2021/09/02 01:04:23;;;;;;;2.10;1.50;;;23.40;57.50;;;;;;6245616;28;20025;-71
2021/09/02 01:07:25;;;;;;;1.50;1.40;;;23.40;57.50;;;;;;6244011;28;20025;-72
2021/09/02 01:10:26;;;;;;;1.95;1.40;;;23.40;57.50;;;;;;6245752;28;20029;-72
2021/09/02 01:13:27;;;;;;;1.75;1.58;;;23.40;57.50;;;;;;6235451;28;20022;-72
2021/09/02 01:16:27;;;;;;;1.30;1.20;;;23.40;57.50;;;;;;6219375;28;20022;-71
2021/09/02 01:19:28;;;;;;;1.83;1.30;;;23.40;57.50;;;;;;6237004;28;20028;-72
2021/09/02 01:22:30;;;;;;;1.08;0.98;;;23.50;57.60;;;;;;6245403;28;20423;-72
2021/09/02 01:25:36;;;;;;;1.40;1.10;;;23.50;57.60;;;;;;6235774;28;20057;-72
2021/09/02 01:28:36;;;;;;;1.20;1.10;;;23.50;57.60;;;;;;6228358;28;20101;-72
2021/09/02 01:31:42;;;;;;;1.75;1.40;;;23.40;57.50;;;;;;6243666;28;20017;-72
2021/09/02 01:34:43;;;;;;;1.10;1.00;;;23.40;57.50;;;;;;6245248;28;20348;-72
2021/09/02 01:37:47;;;;;;;1.50;1.30;;;23.40;57.50;;;;;;6245010;28;20034;-72
2021/09/02 01:40:48;;;;;;;1.75;1.23;;;23.40;57.50;;;;;;6244588;28;20372;-72
2021/09/02 01:43:51;;;;;;;2.00;1.52;;;23.50;57.60;;;;;;6245016;28;20029;-72
2021/09/02 01:46:51;;;;;;;1.10;1.00;;;23.40;57.60;;;;;;6242792;28;20029;-73
2021/09/02 01:49:53;;;;;;;1.60;1.33;;;23.40;57.50;;;;;;6235496;28;20049;-71
2021/09/02 01:52:56;;;;;;;1.15;1.05;;;23.40;57.50;;;;;;6220308;28;20026;-71
2021/09/02 01:55:57;;;;;;;1.30;1.08;;;23.40;57.50;;;;;;6258287;28;20037;-72
2021/09/02 01:58:58;;;;;;;1.40;1.30;;;23.40;57.50;;;;;;6242604;28;20033;-72
2021/09/02 02:01:58;;;;;;;1.20;1.02;;;23.40;57.50;;;;;;6243006;28;20014;-72
2021/09/02 02:04:59;;;;;;;1.38;1.23;;;23.40;57.60;;;;;;6242547;28;20034;-73
2021/09/02 02:08:01;;;;;;;1.38;1.20;;;23.40;57.50;;;;;;6244544;28;20056;-72
2021/09/02 02:11:01;;;;;;;1.33;1.02;;;23.50;57.70;;;;;;6244104;28;20037;-72
2021/09/02 02:14:02;;;;;;;1.45;1.30;;;23.40;57.50;;;;;;6242341;28;20540;-71
2021/09/02 02:17:03;;;;;;;1.33;1.20;;;23.40;57.50;;;;;;6242270;28;20045;-72
2021/09/02 02:20:04;;;;;;;1.30;1.00;;;23.40;57.50;;;;;;6243854;28;20395;-71
2021/09/02 02:23:05;;;;;;;1.48;1.27;;;23.40;57.50;;;;;;6243605;28;20116;-72
2021/09/02 02:26:05;;;;;;;1.42;1.10;;;23.40;57.50;;;;;;6243562;28;20036;-72
2021/09/02 02:29:06;;;;;;;1.23;1.05;;;23.40;57.50;;;;;;6243239;28;20029;-72
2021/09/02 02:32:07;;;;;;;1.30;1.20;;;23.40;57.50;;;;;;6243372;28;20028;-72
2021/09/02 02:35:08;;;;;;;1.20;1.10;;;23.40;57.50;;;;;;6243472;28;20036;-72
2021/09/02 02:38:09;;;;;;;2.60;1.40;;;23.40;57.50;;;;;;6243760;28;20029;-72
2021/09/02 02:41:09;;;;;;;1.20;1.02;;;23.40;57.50;;;;;;6233714;28;20121;-71
2021/09/02 02:44:10;;;;;;;1.10;1.00;;;23.50;57.60;;;;;;6235191;28;20121;-72
2021/09/02 02:47:11;;;;;;;1.42;1.13;;;23.40;57.50;;;;;;6242004;28;20029;-72
2021/09/02 02:50:11;;;;;;;1.30;1.20;;;23.40;57.50;;;;;;6233157;28;20026;-71
2021/09/02 02:53:12;;;;;;;3.08;1.10;;;23.40;57.50;;;;;;6217441;28;20479;-72
2021/09/02 02:56:13;;;;;;;1.10;1.00;;;23.40;57.50;;;;;;6235090;28;20042;-71
2021/09/02 02:59:13;;;;;;;1.10;1.00;;;23.40;57.60;;;;;;6242146;28;20075;-71
2021/09/02 03:02:14;;;;;;;1.98;1.25;;;23.40;57.50;;;;;;6242853;28;20041;-71
2021/09/02 03:05:15;;;;;;;1.23;1.02;;;23.40;57.50;;;;;;6242699;28;20040;-72
2021/09/02 03:08:15;;;;;;;1.20;1.10;;;23.40;57.50;;;;;;6241614;28;20032;-72
2021/09/02 03:11:16;;;;;;;1.13;1.02;;;23.40;57.50;;;;;;6241191;28;20064;-72
2021/09/02 03:14:16;;;;;;;1.38;1.17;;;23.40;57.50;;;;;;6242876;28;20049;-71
2021/09/02 03:17:17;;;;;;;0.93;0.80;;;23.40;57.50;;;;;;6233396;28;20165;-72
2021/09/02 03:20:18;;;;;;;1.15;1.05;;;23.40;57.60;;;;;;6222216;28;20017;-72
2021/09/02 03:23:18;;;;;;;1.40;1.10;;;23.40;57.60;;;;;;6241450;28;20022;-71
2021/09/02 03:26:19;;;;;;;1.50;1.20;;;23.40;57.60;;;;;;6242538;28;20022;-72
2021/09/02 03:29:19;;;;;;;1.25;1.13;;;23.40;57.50;;;;;;6241221;28;20026;-72
2021/09/02 03:32:20;;;;;;;1.08;0.98;;;23.40;57.50;;;;;;6242619;28;20434;-72
2021/09/02 03:35:20;;;;;;;1.30;0.98;;;23.40;57.50;;;;;;6241204;28;20029;-71
2021/09/02 03:38:21;;;;;;;1.90;1.25;;;23.40;57.50;;;;;;6232960;28;20084;-72
2021/09/02 03:41:21;;;;;;;1.45;1.17;;;23.40;57.50;;;;;;6225406;28;20090;-72
2021/09/02 03:44:22;;;;;;;1.65;1.10;;;23.40;57.50;;;;;;6241216;28;20060;-70
2021/09/02 03:47:22;;;;;;;1.10;0.90;;;23.40;57.50;;;;;;6242372;28;20021;-72
2021/09/02 03:50:23;;;;;;;1.10;1.00;;;23.40;57.50;;;;;;6242644;28;20033;-71
2021/09/02 03:53:24;;;;;;;1.20;1.02;;;23.40;57.50;;;;;;6242249;28;20025;-72
2021/09/02 03:56:24;;;;;;;1.60;1.00;;;23.40;57.50;;;;;;6240695;28;20050;-72
2021/09/02 04:03:22;;;;;;;1.30;1.13;;;23.40;57.50;;;;;;6242060;28;20498;-72
2021/09/02 04:06:22;;;;;;;1.20;1.10;;;23.40;57.50;;;;;;6236813;28;20029;-72
2021/09/02 04:09:23;;;;;;;1.27;1.00;;;23.40;57.50;;;;;;6216286;28;20026;-72
2021/09/02 04:12:23;;;;;;;1.25;1.08;;;23.40;57.50;;;;;;6231788;28;20077;-72
2021/09/02 04:15:24;;;;;;;0.77;0.77;;;23.40;57.50;;;;;;6245832;28;20022;-70
2021/09/02 04:18:24;;;;;;;0.85;0.80;;;23.40;57.50;;;;;;6245343;28;20024;-72
2021/09/02 04:21:25;;;;;;;1.10;0.90;;;23.40;57.50;;;;;;6247201;28;20470;-72
2021/09/02 04:24:28;;;;;;;1.33;1.00;;;23.40;57.50;;;;;;6246635;28;20029;-72
2021/09/02 04:27:30;;;;;;;1.05;0.95;;;23.40;57.50;;;;;;6244903;28;20383;-71
2021/09/02 04:30:30;;;;;;;1.15;1.05;;;23.40;57.50;;;;;;6244761;28;20071;-72
2021/09/02 04:33:32;;;;;;;1.30;1.02;;;23.40;57.50;;;;;;6244768;28;20025;-71
2021/09/02 04:36:32;;;;;;;0.80;0.80;;;23.40;57.50;;;;;;6244955;28;20178;-72
2021/09/02 04:39:33;;;;;;;1.38;0.93;;;23.40;57.60;;;;;;6244958;28;20025;-72
2021/09/02 04:42:34;;;;;;;1.02;0.93;;;23.40;57.60;;;;;;6245766;28;20029;-72
2021/09/02 04:45:35;;;;;;;1.25;0.95;;;23.40;57.50;;;;;;6245077;28;20032;-72
2021/09/02 04:48:36;;;;;;;1.23;1.00;;;23.40;57.60;;;;;;6244565;28;20651;-72
2021/09/02 04:51:36;;;;;;;0.73;0.73;;;23.40;57.60;;;;;;6244641;28;20025;-72
2021/09/02 04:54:37;;;;;;;1.27;1.00;;;23.40;57.50;;;;;;6245248;28;20111;-72
2021/09/02 04:57:38;;;;;;;1.08;0.98;;;23.40;57.60;;;;;;6244432;28;20053;-72
2021/09/02 05:00:39;;;;;;;0.90;0.88;;;23.40;57.50;;;;;;6244052;28;20025;-72
2021/09/02 05:03:40;;;;;;;0.95;0.85;;;23.40;57.50;;;;;;6232940;28;20028;-70
2021/09/02 05:06:41;;;;;;;1.13;1.02;;;23.40;57.50;;;;;;6245865;28;20025;-72
2021/09/02 05:09:41;;;;;;;1.08;0.98;;;23.50;57.60;;;;;;6236101;28;20053;-72
2021/09/02 05:12:42;;;;;;;1.15;1.05;;;23.40;57.50;;;;;;6223014;28;20018;-72
2021/09/02 05:15:42;;;;;;;1.02;0.93;;;23.40;57.50;;;;;;6245261;28;20032;-72
2021/09/02 05:18:43;;;;;;;1.40;1.13;;;23.40;57.50;;;;;;6245718;28;20029;-72
2021/09/02 05:21:43;;;;;;;0.93;0.80;;;23.40;57.50;;;;;;6243295;28;20053;-72
2021/09/02 05:24:44;;;;;;;1.00;0.88;;;23.40;57.50;;;;;;6243655;28;20419;-72
2021/09/02 05:27:44;;;;;;;0.98;0.85;;;23.40;57.50;;;;;;6243852;28;20017;-72
2021/09/02 05:30:45;;;;;;;1.00;0.90;;;23.40;57.50;;;;;;6245004;28;20061;-71
2021/09/02 05:33:45;;;;;;;0.85;0.80;;;23.40;57.50;;;;;;6244522;28;20028;-71
2021/09/02 05:36:46;;;;;;;1.10;0.82;;;23.40;57.50;;;;;;6243907;28;20013;-72
2021/09/02 05:39:46;;;;;;;0.80;0.80;;;23.40;57.50;;;;;;6228105;28;20026;-71
2021/09/02 05:42:47;;;;;;;0.90;0.75;;;23.40;57.50;;;;;;6218287;28;20026;-70
2021/09/02 05:45:48;;;;;;;1.88;1.20;;;23.40;57.50;;;;;;6241549;28;20036;-70
2021/09/02 05:48:48;;;;;;;3.70;1.13;;;23.40;57.20;;;;;;6240043;28;20075;-70
2021/09/02 05:51:49;;;;;;;1.60;1.20;;;23.40;57.10;;;;;;6243136;28;20075;-71
2021/09/02 05:54:54;;;;;;;1.50;1.10;;;23.40;57.20;;;;;;6244532;28;20537;-71
2021/09/02 05:57:54;;;;;;;1.38;0.90;;;23.40;57.20;;;;;;6243920;28;20064;-70
2021/09/02 06:00:55;;;;;;;2.15;1.08;;;23.40;57.30;;;;;;6228386;28;20029;-70
2021/09/02 06:03:56;;;;;;;1.35;1.10;;;23.40;57.30;;;;;;6227449;28;20663;-71
2021/09/02 06:06:57;;;;;;;1.58;1.13;;;23.40;57.30;;;;;;6268895;28;20067;-71
2021/09/02 06:09:58;;;;;;;1.85;1.35;;;23.40;57.30;;;;;;6268269;28;20108;-70
2021/09/02 06:13:00;;;;;;;1.17;0.90;;;23.40;57.30;;;;;;6269052;28;20021;-71
2021/09/02 06:16:01;;;;;;;1.52;1.02;;;23.40;57.40;;;;;;6251758;28;20040;-71
2021/09/02 06:19:01;;;;;;;1.30;1.20;;;23.40;57.40;;;;;;6268861;28;20100;-71
2021/09/02 06:22:02;;;;;;;1.33;1.02;;;23.40;57.30;;;;;;6268472;28;20496;-71
2021/09/02 06:25:04;;;;;;;2.17;1.20;;;23.40;57.40;;;;;;6268465;28;20333;-71
2021/09/02 06:28:05;;;;;;;1.33;1.08;;;23.40;57.40;;;;;;6251624;28;20029;-70
2021/09/02 06:31:06;;;;;;;1.23;1.08;;;23.40;57.40;;;;;;6267992;28;20048;-70
2021/09/02 06:34:06;;;;;;;2.15;1.40;;;23.40;57.40;;;;;;6251263;28;20052;-71
2021/09/02 06:37:07;;;;;;;1.48;1.17;;;23.40;57.40;;;;;;6252850;28;20395;-71
2021/09/02 06:40:08;;;;;;;1.13;0.80;;;23.40;57.40;;;;;;6229812;28;20029;-70
2021/09/02 06:43:09;;;;;;;1.70;1.02;;;23.40;57.40;;;;;;6245110;28;20033;-70
2021/09/02 06:46:09;;;;;;;1.45;1.02;;;23.50;57.50;;;;;;6246583;28;20482;-71
2021/09/02 06:49:10;;;;;;;1.13;0.93;;;23.40;57.40;;;;;;6246058;28;20394;-70
2021/09/02 06:52:10;;;;;;;1.65;1.00;;;23.40;57.50;;;;;;6220345;28;20028;-71
2021/09/02 06:55:11;;;;;;;1.17;0.95;;;23.40;57.40;;;;;;6228742;28;20091;-71
2021/09/02 06:58:12;;;;;;;1.40;1.10;;;23.40;57.50;;;;;;6245298;28;20077;-70
2021/09/02 07:01:13;;;;;;;0.93;0.82;;;23.40;57.40;;;;;;6244381;28;20028;-71
2021/09/02 07:04:14;;;;;;;1.33;1.05;;;23.40;57.40;;;;;;6244441;28;20029;-71
2021/09/02 07:07:15;;;;;;;1.27;1.00;;;23.40;57.50;;;;;;6245503;28;20072;-70
2021/09/02 07:10:15;;;;;;;1.67;1.10;;;23.40;57.50;;;;;;6245615;28;20536;-71
2021/09/02 07:13:16;;;;;;;1.42;1.10;;;23.40;57.50;;;;;;6245297;28;20036;-70
2021/09/02 07:16:17;;;;;;;1.52;0.90;;;23.40;57.60;;;;;;6245329;28;20028;-70
2021/09/02 07:19:17;;;;;;;1.90;0.93;;;23.40;57.50;;;;;;6244191;28;20029;-70
2021/09/02 07:22:18;;;;;;;1.15;0.90;;;23.40;57.60;;;;;;6227437;28;20395;-71
2021/09/02 07:25:18;;;;;;;1.35;1.13;;;23.40;57.60;;;;;;6219489;28;20025;-70
2021/09/02 07:28:19;;;;;;;1.25;0.98;;;23.40;57.50;;;;;;6245728;28;20028;-71
2021/09/02 07:31:19;;;;;;;1.40;1.10;;;23.40;57.50;;;;;;6243518;28;20088;-71
2021/09/02 07:34:21;;;;;;;3.53;1.20;;;23.40;57.50;;;;;;6243935;28;20458;-71
2021/09/02 07:37:22;;;;;;;0.90;0.80;;;23.40;57.50;;;;;;6243715;28;20134;-71
2021/09/02 07:40:22;;;;;;;1.42;1.13;;;23.40;57.50;;;;;;6244187;28;20025;-71
2021/09/02 07:43:23;;;;;;;1.35;1.05;;;23.40;57.50;;;;;;6243979;28;20048;-71
2021/09/02 07:46:24;;;;;;;1.25;1.00;;;23.40;57.50;;;;;;6248009;28;20068;-70
2021/09/02 07:49:24;;;;;;;0.85;0.73;;;23.40;57.50;;;;;;6249746;28;20030;-71
2021/09/02 07:52:25;;;;;;;1.58;1.20;;;23.40;57.50;;;;;;6235657;28;20403;-70
2021/09/02 07:55:26;;;;;;;1.10;0.80;;;23.50;57.60;;;;;;6225291;28;20471;-71
2021/09/02 07:58:26;;;;;;;1.83;1.30;;;23.40;57.50;;;;;;6236961;28;20050;-70
2021/09/02 08:01:27;;;;;;;1.10;1.00;;;23.40;57.50;;;;;;6228940;28;20092;-71
2021/09/02 08:04:28;;;;;;;1.20;1.08;;;23.40;57.50;;;;;;6249633;28;20104;-70
2021/09/02 08:07:28;;;;;;;1.10;0.95;;;23.40;57.50;;;;;;6249258;28;20075;-71
2021/09/02 08:10:29;;;;;;;1.10;0.98;;;23.40;57.40;;;;;;6249456;28;20489;-70
2021/09/02 08:13:29;;;;;;;1.65;1.10;;;23.40;57.40;;;;;;6240431;28;20112;-71
2021/09/02 08:16:30;;;;;;;1.40;1.10;;;23.40;57.50;;;;;;6227311;28;20014;-71
2021/09/02 08:19:31;;;;;;;1.27;0.95;;;23.40;57.40;;;;;;6250639;28;20029;-70
2021/09/02 08:22:33;;;;;;;1.33;1.10;;;23.40;57.40;;;;;;6248251;28;20025;-71
2021/09/02 08:25:34;;;;;;;2.25;0.95;;;23.40;57.40;;;;;;6247670;28;20033;-71
2021/09/02 08:28:34;;;;;;;1.35;1.00;;;23.40;57.50;;;;;;6246428;28;20474;-71
2021/09/02 08:31:35;;;;;;;1.88;1.08;;;23.40;57.50;;;;;;6247795;28;20021;-71
2021/09/02 08:34:36;;;;;;;2.00;1.08;;;23.40;57.50;;;;;;6246194;28;20021;-71
2021/09/02 08:37:36;;;;;;;1.30;1.00;;;23.40;57.50;;;;;;6247485;28;20033;-71
2021/09/02 08:40:39;;;;;;;1.38;1.13;;;23.40;57.50;;;;;;6247477;28;20136;-71
2021/09/02 08:43:41;;;;;;;1.60;1.23;;;23.40;57.50;;;;;;6247202;28;20052;-71
2021/09/02 08:46:42;;;;;;;1.30;1.05;;;23.40;57.50;;;;;;6247056;28;20555;-71
2021/09/02 08:49:44;;;;;;;1.05;0.90;;;23.40;57.50;;;;;;6246695;28;20033;-71
2021/09/02 08:52:45;;;;;;;2.15;1.10;;;23.40;57.50;;;;;;6246952;28;20032;-71
2021/09/02 08:55:46;;;;;;;1.10;1.00;;;23.40;58.20;;;;;;6247268;28;20033;-71
2021/09/02 08:58:46;;;;;;;1.10;0.85;;;23.50;57.60;;;;;;6244006;28;20078;-71
2021/09/02 09:01:48;;;;;;;1.08;0.98;;;23.40;57.50;;;;;;6247014;28;20042;-71
2021/09/02 09:05:07;;;;;;;0.80;0.73;;;23.40;57.50;;;;;;6237207;28;20032;-71
2021/09/02 09:08:10;;;;;;;1.35;1.00;;;23.40;57.50;;;;;;6244216;28;20029;-71
2021/09/02 09:11:28;;;;;;;1.08;0.95;;;23.40;57.40;;;;;;6246860;28;20029;-71
2021/09/02 09:14:31;;;;;;;0.80;0.80;;;23.40;57.50;;;;;;6235212;28;20025;-71
2021/09/02 09:17:32;;;;;;;1.40;1.08;;;23.40;57.50;;;;;;6222073;28;20096;-71
2021/09/02 09:20:32;;;;;;;1.20;0.90;;;23.40;57.50;;;;;;6246643;28;20156;-71
2021/09/02 09:24:11;;;;;;;1.45;1.15;;;23.40;57.40;;;;;;6246726;28;20037;-71
2021/09/02 09:27:14;;;;;;;1.25;1.10;;;23.40;57.40;;;;;;6218744;28;20456;-71
2021/09/02 09:30:19;;;;;;;1.52;1.10;;;23.40;57.40;;;;;;6217996;28;20443;-71
2021/09/02 09:33:19;;;;;;;0.77;0.60;;;23.40;58.10;;;;;;6245822;28;20041;-72
2021/09/02 09:36:22;;;;;;;1.20;0.90;;;23.40;57.40;;;;;;6245693;28;20376;-71
2021/09/02 09:39:22;;;;;;;1.27;1.00;;;23.40;57.40;;;;;;6244905;28;20068;-71
2021/09/02 09:42:23;;;;;;;4.07;0.80;;;23.40;57.40;;;;;;6226759;28;20321;-71
2021/09/02 09:45:33;;;;;;;2.65;1.63;;;23.40;57.60;;;;;;6241931;28;20032;-71
2021/09/02 09:48:36;;;;;;;8.15;2.50;;;23.50;57.40;;;;;;6238862;28;20025;-71
2021/09/02 09:51:37;;;;;;;4.15;2.65;;;23.50;57.20;;;;;;6242877;28;20033;-71
2021/09/02 09:54:38;;;;;;;4.00;2.58;;;23.50;57.20;;;;;;6242990;28;20387;-71
2021/09/02 09:57:41;;;;;;;6.15;2.72;;;23.50;56.60;;;;;;6243415;28;20053;-71
2021/09/02 10:00:41;;;;;;;4.38;2.35;;;23.50;56.50;;;;;;6225807;28;20379;-71
2021/09/02 10:03:50;;;;;;;10.50;2.63;;;23.50;56.40;;;;;;6230265;28;20038;-71
2021/09/02 10:06:51;;;;;;;8.77;2.95;;;23.40;56.70;;;;;;6234205;28;20240;-70
2021/09/02 10:09:52;;;;;;;8.30;2.90;;;23.40;56.40;;;;;;6236364;28;20534;-71
2021/09/02 10:12:54;;;;;;;6.00;2.67;;;23.40;56.60;;;;;;6242410;28;20021;-70
2021/09/02 10:15:55;;;;;;;5.55;3.28;;;23.40;56.30;;;;;;6238725;28;20478;-71
2021/09/02 10:18:57;;;;;;;5.45;2.70;;;23.40;56.30;;;;;;6243453;28;20029;-71
2021/09/02 10:21:58;;;;;;;4.40;2.85;;;23.40;56.50;;;;;;6221974;28;20426;-71
2021/09/02 10:24:58;;;;;;;15.23;3.20;;;23.40;56.40;;;;;;6227610;28;20479;-71
2021/09/02 10:28:00;;;;;;;7.03;2.92;;;23.40;56.20;;;;;;6243790;28;20352;-71
2021/09/02 10:31:05;;;;;;;4.95;2.38;;;23.40;56.30;;;;;;6244350;28;20079;-71
2021/09/02 10:34:26;;;;;;;4.15;1.90;;;23.40;56.40;;;;;;6245097;28;20028;-71
2021/09/02 10:37:36;;;;;;;5.53;3.10;;;23.40;56.50;;;;;;6243358;28;20021;-71
2021/09/02 10:40:36;;;;;;;3.50;2.20;;;23.40;56.50;;;;;;6244672;28;20497;-71
2021/09/02 10:43:49;;;;;;;3.72;2.17;;;23.40;56.60;;;;;;6244696;28;20288;-71
2021/09/02 10:46:53;;;;;;;3.78;2.20;;;23.40;56.60;;;;;;6243120;28;20036;-71
2021/09/02 10:50:02;;;;;;;5.43;2.33;;;23.40;56.70;;;;;;6243982;28;20109;-71
2021/09/02 10:53:17;;;;;;;4.85;2.05;;;23.50;56.80;;;;;;6244524;28;20292;-71
2021/09/02 10:56:17;;;;;;;4.07;2.27;;;23.40;56.70;;;;;;6244646;28;20091;-71
2021/09/02 10:59:45;;;;;;;2.38;1.98;;;23.40;56.80;;;;;;6243059;28;20056;-71
2021/09/02 11:02:46;;;;;;;3.67;2.03;;;23.40;56.80;;;;;;6242895;28;20043;-71
2021/09/02 11:05:53;;;;;;;2.40;1.77;;;23.40;56.80;;;;;;6243001;28;20029;-71
2021/09/02 11:08:54;;;;;;;4.80;2.00;;;23.40;56.80;;;;;;6242490;28;20033;-71
2021/09/02 11:11:56;;;;;;;2.60;1.60;;;23.40;56.80;;;;;;6243808;28;20018;-71
2021/09/02 11:14:57;;;;;;;2.47;1.85;;;23.40;56.80;;;;;;6229788;28;20137;-71
2021/09/02 11:18:00;;;;;;;2.05;1.63;;;23.40;56.80;;;;;;6256827;28;20021;-72
2021/09/02 11:21:00;;;;;;;5.70;2.05;;;23.40;56.90;;;;;;6242303;28;20456;-71
2021/09/02 11:24:10;;;;;;;3.05;2.17;;;23.50;57.00;;;;;;6244360;28;20043;-71
2021/09/02 11:27:25;;;;;;;2.05;1.60;;;23.40;57.00;;;;;;6243569;28;20030;-71
2021/09/02 11:30:27;;;;;;;2.65;2.03;;;23.40;57.00;;;;;;6243669;28;20071;-71
2021/09/02 11:33:28;;;;;;;1.40;1.23;;;23.40;57.00;;;;;;6242600;28;20033;-71
2021/09/02 11:36:29;;;;;;;1.95;1.50;;;23.40;57.10;;;;;;6242469;28;20467;-71
2021/09/02 11:39:32;;;;;;;2.33;1.42;;;23.50;57.20;;;;;;6242516;28;20033;-71
2021/09/02 11:42:33;;;;;;;2.55;1.60;;;23.50;57.20;;;;;;6242136;28;20128;-70
2021/09/02 11:45:35;;;;;;;2.35;1.60;;;23.40;57.10;;;;;;6242433;28;20117;-71
2021/09/02 11:48:48;;;;;;;2.03;1.58;;;23.40;57.20;;;;;;6243142;28;20025;-71
2021/09/02 11:51:54;;;;;;;2.50;1.80;;;23.40;57.80;;;;;;6242985;28;20545;-71
2021/09/02 11:54:56;;;;;;;2.63;2.05;;;23.40;57.20;;;;;;6244252;28;20017;-71
2021/09/02 11:58:03;;;;;;;2.13;1.45;;;23.40;57.20;;;;;;6243553;28;20080;-71
2021/09/02 12:01:04;;;;;;;2.03;1.35;;;23.40;57.20;;;;;;6243651;28;20025;-71
2021/09/02 12:04:05;;;;;;;2.33;1.75;;;23.40;57.80;;;;;;6238468;28;20577;-71
2021/09/02 12:07:06;;;;;;;2.00;1.50;;;23.40;57.20;;;;;;6242114;28;20116;-71
2021/09/02 12:10:08;;;;;;;1.98;1.63;;;23.40;57.20;;;;;;6243324;28;20030;-71
2021/09/02 12:13:35;;;;;;;3.08;1.70;;;23.40;57.20;;;;;;6243457;28;20029;-71
2021/09/02 12:16:35;;;;;;;1.88;1.50;;;23.50;57.30;;;;;;6243424;28;20068;-71
2021/09/02 12:19:53;;;;;;;2.35;1.60;;;23.40;57.20;;;;;;6243491;28;20029;-71
2021/09/02 12:22:54;;;;;;;1.63;1.50;;;23.50;57.30;;;;;;6242596;28;20071;-71
2021/09/02 12:26:04;;;;;;;2.10;1.45;;;23.40;57.30;;;;;;6243126;28;20029;-71
2021/09/02 12:29:11;;;;;;;2.65;1.65;;;23.40;57.30;;;;;;6243337;28;20466;-71
2021/09/02 12:32:18;;;;;;;1.50;1.27;;;23.40;57.30;;;;;;6243582;28;20501;-71
2021/09/02 12:35:19;;;;;;;2.08;1.50;;;23.40;57.30;;;;;;6247900;28;20018;-71
2021/09/02 12:38:37;;;;;;;2.35;1.38;;;23.40;57.30;;;;;;6247399;28;20040;-71
2021/09/02 12:41:51;;;;;;;1.73;1.40;;;23.50;57.40;;;;;;6247643;28;20018;-71
2021/09/02 12:45:20;;;;;;;1.92;1.30;;;23.40;57.30;;;;;;6247459;28;20311;-71
2021/09/02 12:48:20;;;;;;;1.77;1.45;;;23.50;57.40;;;;;;6247468;28;20025;-71
2021/09/02 12:51:22;;;;;;;1.88;1.55;;;23.50;57.40;;;;;;6248937;28;20036;-71
2021/09/02 12:54:22;;;;;;;2.17;1.65;;;23.50;57.40;;;;;;6249030;28;20010;-71
2021/09/02 12:57:24;;;;;;;2.00;1.38;;;23.50;57.50;;;;;;6248904;28;20041;-71
2021/09/02 13:00:32;;;;;;;1.80;1.35;;;23.50;57.40;;;;;;6248757;28;20100;-71
2021/09/02 13:03:33;;;;;;;1.70;1.40;;;23.50;57.40;;;;;;6247490;28;20026;-72
2021/09/02 13:06:34;;;;;;;2.28;1.60;;;23.50;58.20;;;;;;6248332;28;20394;-71
2021/09/02 13:09:36;;;;;;;2.30;1.48;;;23.50;57.50;;;;;;6250183;28;20037;-71
2021/09/02 13:12:36;;;;;;;1.70;1.33;;;23.50;57.50;;;;;;6248698;28;20080;-70
2021/09/02 13:15:37;;;;;;;1.40;1.30;;;23.50;57.50;;;;;;6252034;28;20030;-70
2021/09/02 13:18:38;;;;;;;1.58;1.20;;;23.50;57.50;;;;;;6252100;28;20435;-71
2021/09/02 13:21:38;;;;;;;2.28;1.27;;;23.50;57.50;;;;;;6270355;28;20020;-71
2021/09/02 13:24:40;;;;;;;1.77;1.30;;;23.50;58.20;;;;;;6270029;28;20504;-71
2021/09/02 13:27:42;;;;;;;1.75;1.45;;;23.50;57.50;;;;;;6270098;28;20044;-71
2021/09/02 13:30:43;;;;;;;2.22;1.40;;;23.50;57.60;;;;;;6252952;28;20456;-69
2021/09/02 13:33:43;;;;;;;2.08;1.48;;;23.50;57.60;;;;;;6268799;28;20029;-69
2021/09/02 13:36:44;;;;;;;1.40;1.30;;;23.50;58.20;;;;;;6251815;28;20121;-69
2021/09/02 13:39:45;;;;;;;2.38;1.38;;;23.50;57.50;;;;;;6253382;28;20485;-70
2021/09/02 13:42:46;;;;;;;1.40;1.20;;;23.50;57.50;;;;;;6268388;28;20048;-71
2021/09/02 13:45:46;;;;;;;2.67;1.40;;;23.50;57.60;;;;;;6262718;28;20056;-69
2021/09/02 13:48:47;;;;;;;2.53;1.40;;;23.50;57.50;;;;;;6245345;28;20021;-72
2021/09/02 13:51:50;;;;;;;1.80;1.10;;;23.50;57.60;;;;;;6247030;28;20569;-70
2021/09/02 13:54:50;;;;;;;1.73;1.42;;;23.50;57.60;;;;;;6248452;28;20021;-71
2021/09/02 13:57:51;;;;;;;4.55;1.40;;;23.50;57.60;;;;;;6246861;28;20064;-71
2021/09/02 14:00:59;;;;;;;2.17;1.25;;;23.40;57.50;;;;;;6247659;28;20056;-71
2021/09/02 14:04:01;;;;;;;1.63;1.17;;;23.40;57.50;;;;;;6246499;28;20033;-71
2021/09/02 14:07:03;;;;;;;1.30;1.10;;;23.50;57.60;;;;;;6247739;28;20564;-71
2021/09/02 14:10:04;;;;;;;1.42;1.10;;;23.50;57.60;;;;;;6246008;28;20056;-71
2021/09/02 14:13:05;;;;;;;1.52;1.35;;;23.50;57.60;;;;;;6247937;28;20029;-71
2021/09/02 14:16:06;;;;;;;1.63;1.30;;;23.50;57.60;;;;;;6233054;28;20041;-70
2021/09/02 14:19:12;;;;;;;1.65;1.40;;;23.40;57.50;;;;;;6223731;28;20057;-70
2021/09/02 14:22:13;;;;;;;1.20;1.10;;;23.50;57.60;;;;;;6246615;28;20490;-70
2021/09/02 14:25:13;;;;;;;1.90;1.15;;;23.50;57.60;;;;;;6247831;28;20033;-71
2021/09/02 14:28:14;;;;;;;1.80;1.10;;;23.50;57.60;;;;;;6245687;28;20082;-71
2021/09/02 14:31:15;;;;;;;1.58;1.30;;;23.50;57.70;;;;;;6246543;28;20079;-71
2021/09/02 14:34:17;;;;;;;1.33;1.15;;;23.50;57.60;;;;;;6245869;28;20022;-71
2021/09/02 14:37:20;;;;;;;1.40;1.17;;;23.50;57.60;;;;;;6247551;28;20426;-70
2021/09/02 14:40:20;;;;;;;1.25;1.10;;;23.50;57.60;;;;;;6247083;28;20025;-70
2021/09/02 14:43:21;;;;;;;1.52;1.10;;;23.50;57.70;;;;;;6245839;28;20029;-71
2021/09/02 14:46:21;;;;;;;1.20;1.08;;;23.50;57.60;;;;;;6246891;28;20026;-71
2021/09/02 14:49:22;;;;;;;1.65;1.10;;;23.50;57.60;;;;;;6245866;28;20522;-71
2021/09/02 14:52:23;;;;;;;2.05;1.10;;;23.50;57.60;;;;;;6246889;28;20021;-71
2021/09/02 14:55:24;;;;;;;1.50;1.20;;;23.50;57.60;;;;;;6245792;28;20493;-70
2021/09/02 14:58:25;;;;;;;1.20;1.10;;;23.50;57.60;;;;;;6245196;28;20124;-70
2021/09/02 15:01:25;;;;;;;1.52;1.20;;;23.50;57.60;;;;;;6246831;28;20041;-71
2021/09/02 15:04:26;;;;;;;1.35;1.20;;;23.40;57.60;;;;;;6245953;28;20059;-71
2021/09/02 15:07:26;;;;;;;1.33;1.08;;;23.50;57.70;;;;;;6246609;28;20052;-71
2021/09/02 15:10:29;;;;;;;1.42;1.20;;;23.50;57.60;;;;;;6245362;28;20083;-71
2021/09/02 15:13:30;;;;;;;1.33;1.00;;;23.50;57.60;;;;;;6246410;28;20021;-71
2021/09/02 15:16:34;;;;;;;1.13;1.00;;;23.50;57.70;;;;;;6245121;28;20017;-70
2021/09/02 15:19:35;;;;;;;1.38;1.10;;;23.50;57.60;;;;;;6246621;28;20386;-70
2021/09/02 15:22:35;;;;;;;1.10;1.00;;;23.50;57.60;;;;;;6246366;28;20040;-71
2021/09/02 15:25:36;;;;;;;1.35;1.15;;;23.50;57.60;;;;;;6246501;28;20029;-71
2021/09/02 15:28:37;;;;;;;1.75;1.10;;;23.50;57.70;;;;;;6245848;28;20030;-71
2021/09/02 15:31:38;;;;;;;1.40;1.15;;;23.50;57.60;;;;;;6245776;28;20057;-72
2021/09/02 15:34:38;;;;;;;1.90;1.10;;;23.50;57.60;;;;;;6244492;28;20018;-71
2021/09/02 15:37:41;;;;;;;1.23;1.10;;;23.50;57.60;;;;;;6244747;28;20093;-71
2021/09/02 15:40:44;;;;;;;1.52;1.27;;;23.50;57.70;;;;;;6244551;28;20124;-71
2021/09/02 15:43:44;;;;;;;1.38;1.20;;;23.50;57.70;;;;;;6245842;28;20112;-71
2021/09/02 15:46:45;;;;;;;1.20;1.10;;;23.40;57.60;;;;;;6245451;28;20025;-71
2021/09/02 15:49:46;;;;;;;1.15;1.00;;;23.50;57.70;;;;;;6244260;28;20108;-71
2021/09/02 15:52:47;;;;;;;1.88;1.17;;;23.50;57.70;;;;;;6245563;28;20022;-71